RJSO(METAR)
10/16 18:00
METAR RJSO 160900Z 24007KT 9999 FEW030 SCT045 12/05 Q1022 RMK 1CU030
4CU045 A3019=
戻る
トップページへ戻る
IMOC Co,.Ltd.